sensor_id;sensor_type;location;lat;lon;timestamp;P1;durP1;ratioP1;P2;durP2;ratioP2
6378;SDS011;3222;48.858;10.128;2022-11-18T00:02:05;1.17;;;1.00;;
6378;SDS011;3222;48.858;10.128;2022-11-18T00:04:31;0.70;;;0.70;;
6378;SDS011;3222;48.858;10.128;2022-11-18T00:06:57;0.63;;;0.63;;
6378;SDS011;3222;48.858;10.128;2022-11-18T00:09:22;0.60;;;0.60;;
6378;SDS011;3222;48.858;10.128;2022-11-18T00:11:48;0.70;;;0.70;;
6378;SDS011;3222;48.858;10.128;2022-11-18T00:14:32;0.60;;;0.60;;
6378;SDS011;3222;48.858;10.128;2022-11-18T00:16:59;0.70;;;0.70;;
6378;SDS011;3222;48.858;10.128;2022-11-18T00:19:27;1.13;;;0.60;;
6378;SDS011;3222;48.858;10.128;2022-11-18T00:21:55;0.70;;;0.70;;
6378;SDS011;3222;48.858;10.128;2022-11-18T00:24:21;0.60;;;0.60;;
6378;SDS011;3222;48.858;10.128;2022-11-18T00:26:48;0.70;;;0.70;;
6378;SDS011;3222;48.858;10.128;2022-11-18T00:29:14;0.53;;;0.53;;
6378;SDS011;3222;48.858;10.128;2022-11-18T00:31:40;0.93;;;0.67;;
6378;SDS011;3222;48.858;10.128;2022-11-18T00:34:06;0.60;;;0.60;;
6378;SDS011;3222;48.858;10.128;2022-11-18T00:36:34;0.63;;;0.63;;
6378;SDS011;3222;48.858;10.128;2022-11-18T00:39:00;1.30;;;0.60;;
6378;SDS011;3222;48.858;10.128;2022-11-18T00:41:26;0.70;;;0.60;;
6378;SDS011;3222;48.858;10.128;2022-11-18T00:44:11;0.70;;;0.70;;
6378;SDS011;3222;48.858;10.128;2022-11-18T00:46:37;0.63;;;0.63;;
6378;SDS011;3222;48.858;10.128;2022-11-18T00:49:03;0.70;;;0.70;;
6378;SDS011;3222;48.858;10.128;2022-11-18T00:51:28;0.60;;;0.60;;
6378;SDS011;3222;48.858;10.128;2022-11-18T00:53:54;2.47;;;0.70;;
6378;SDS011;3222;48.858;10.128;2022-11-18T00:56:20;0.70;;;0.70;;
6378;SDS011;3222;48.858;10.128;2022-11-18T00:58:45;0.70;;;0.70;;
6378;SDS011;3222;48.858;10.128;2022-11-18T01:01:11;0.70;;;0.70;;
6378;SDS011;3222;48.858;10.128;2022-11-18T01:03:37;0.60;;;0.60;;
6378;SDS011;3222;48.858;10.128;2022-11-18T01:06:02;0.60;;;0.60;;
6378;SDS011;3222;48.858;10.128;2022-11-18T01:08:28;0.60;;;0.60;;
6378;SDS011;3222;48.858;10.128;2022-11-18T01:10:54;0.60;;;0.60;;
6378;SDS011;3222;48.858;10.128;2022-11-18T01:13:39;0.70;;;0.70;;
6378;SDS011;3222;48.858;10.128;2022-11-18T01:16:05;0.80;;;0.80;;
6378;SDS011;3222;48.858;10.128;2022-11-18T01:18:31;0.80;;;0.80;;
6378;SDS011;3222;48.858;10.128;2022-11-18T01:21:00;0.53;;;0.53;;
6378;SDS011;3222;48.858;10.128;2022-11-18T01:23:27;0.60;;;0.60;;
6378;SDS011;3222;48.858;10.128;2022-11-18T01:25:54;0.60;;;0.60;;
6378;SDS011;3222;48.858;10.128;2022-11-18T01:28:19;0.70;;;0.70;;
6378;SDS011;3222;48.858;10.128;2022-11-18T01:30:45;0.60;;;0.60;;
6378;SDS011;3222;48.858;10.128;2022-11-18T01:33:11;0.70;;;0.70;;
6378;SDS011;3222;48.858;10.128;2022-11-18T01:35:38;0.60;;;0.60;;
6378;SDS011;3222;48.858;10.128;2022-11-18T01:38:06;0.80;;;0.80;;
6378;SDS011;3222;48.858;10.128;2022-11-18T01:40:33;0.60;;;0.60;;
6378;SDS011;3222;48.858;10.128;2022-11-18T01:42:59;0.70;;;0.70;;
6378;SDS011;3222;48.858;10.128;2022-11-18T01:50:53;0.70;;;0.70;;
6378;SDS011;3222;48.858;10.128;2022-11-18T01:53:21;0.60;;;0.60;;
6378;SDS011;3222;48.858;10.128;2022-11-18T01:55:51;0.70;;;0.70;;
6378;SDS011;3222;48.858;10.128;2022-11-18T01:58:28;0.60;;;0.60;;
6378;SDS011;3222;48.858;10.128;2022-11-18T02:00:59;0.60;;;0.60;;
6378;SDS011;3222;48.858;10.128;2022-11-18T02:03:26;0.70;;;0.70;;
6378;SDS011;3222;48.858;10.128;2022-11-18T02:05:52;0.60;;;0.60;;
6378;SDS011;3222;48.858;10.128;2022-11-18T02:08:19;0.60;;;0.60;;
6378;SDS011;3222;48.858;10.128;2022-11-18T02:10:47;0.60;;;0.60;;
6378;SDS011;3222;48.858;10.128;2022-11-18T02:13:12;0.70;;;0.70;;
6378;SDS011;3222;48.858;10.128;2022-11-18T02:15:45;0.60;;;0.60;;
6378;SDS011;3222;48.858;10.128;2022-11-18T02:18:34;0.73;;;0.73;;
6378;SDS011;3222;48.858;10.128;2022-11-18T02:21:17;0.70;;;0.70;;
6378;SDS011;3222;48.858;10.128;2022-11-18T02:24:09;0.93;;;0.80;;
6378;SDS011;3222;48.858;10.128;2022-11-18T02:32:25;0.73;;;0.73;;
6378;SDS011;3222;48.858;10.128;2022-11-18T02:35:02;0.80;;;0.80;;
6378;SDS011;3222;48.858;10.128;2022-11-18T02:37:50;0.70;;;0.70;;
6378;SDS011;3222;48.858;10.128;2022-11-18T02:40:27;0.90;;;0.90;;
6378;SDS011;3222;48.858;10.128;2022-11-18T02:42:59;0.70;;;0.70;;
6378;SDS011;3222;48.858;10.128;2022-11-18T02:45:42;0.87;;;0.87;;
6378;SDS011;3222;48.858;10.128;2022-11-18T02:48:11;1.67;;;0.90;;
6378;SDS011;3222;48.858;10.128;2022-11-18T02:50:38;1.17;;;0.90;;
6378;SDS011;3222;48.858;10.128;2022-11-18T02:53:07;1.10;;;1.10;;
6378;SDS011;3222;48.858;10.128;2022-11-18T02:55:36;0.90;;;0.90;;
6378;SDS011;3222;48.858;10.128;2022-11-18T02:58:04;0.90;;;0.90;;
6378;SDS011;3222;48.858;10.128;2022-11-18T03:00:31;1.30;;;1.13;;
6378;SDS011;3222;48.858;10.128;2022-11-18T03:02:57;1.00;;;1.00;;
6378;SDS011;3222;48.858;10.128;2022-11-18T03:05:41;1.00;;;1.00;;
6378;SDS011;3222;48.858;10.128;2022-11-18T03:08:14;1.10;;;1.10;;
6378;SDS011;3222;48.858;10.128;2022-11-18T03:10:48;2.30;;;2.10;;
6378;SDS011;3222;48.858;10.128;2022-11-18T03:13:25;2.50;;;2.30;;
6378;SDS011;3222;48.858;10.128;2022-11-18T03:16:05;2.10;;;1.90;;
6378;SDS011;3222;48.858;10.128;2022-11-18T03:18:52;1.50;;;1.40;;
6378;SDS011;3222;48.858;10.128;2022-11-18T03:21:40;1.10;;;1.10;;
6378;SDS011;3222;48.858;10.128;2022-11-18T03:24:16;1.00;;;1.00;;
6378;SDS011;3222;48.858;10.128;2022-11-18T03:26:49;1.83;;;1.00;;
6378;SDS011;3222;48.858;10.128;2022-11-18T03:29:25;1.07;;;1.00;;
6378;SDS011;3222;48.858;10.128;2022-11-18T03:32:05;1.60;;;0.90;;
6378;SDS011;3222;48.858;10.128;2022-11-18T03:34:36;0.90;;;0.90;;
6378;SDS011;3222;48.858;10.128;2022-11-18T03:37:15;1.20;;;1.10;;
6378;SDS011;3222;48.858;10.128;2022-11-18T03:39:45;1.07;;;1.07;;
6378;SDS011;3222;48.858;10.128;2022-11-18T03:42:26;0.90;;;0.90;;
6378;SDS011;3222;48.858;10.128;2022-11-18T03:45:01;1.40;;;1.30;;
6378;SDS011;3222;48.858;10.128;2022-11-18T03:47:32;1.47;;;1.10;;
6378;SDS011;3222;48.858;10.128;2022-11-18T03:50:05;1.30;;;1.20;;
6378;SDS011;3222;48.858;10.128;2022-11-18T03:52:38;1.23;;;1.20;;
6378;SDS011;3222;48.858;10.128;2022-11-18T03:55:08;1.27;;;1.20;;
6378;SDS011;3222;48.858;10.128;2022-11-18T03:57:41;0.80;;;0.80;;
6378;SDS011;3222;48.858;10.128;2022-11-18T04:00:28;1.00;;;1.00;;
6378;SDS011;3222;48.858;10.128;2022-11-18T04:03:02;1.27;;;1.27;;
6378;SDS011;3222;48.858;10.128;2022-11-18T04:05:29;1.67;;;1.07;;
6378;SDS011;3222;48.858;10.128;2022-11-18T04:08:00;1.10;;;1.10;;
6378;SDS011;3222;48.858;10.128;2022-11-18T04:10:40;1.07;;;1.07;;
6378;SDS011;3222;48.858;10.128;2022-11-18T04:13:22;1.00;;;1.00;;
6378;SDS011;3222;48.858;10.128;2022-11-18T04:15:52;1.00;;;1.00;;
6378;SDS011;3222;48.858;10.128;2022-11-18T04:18:18;1.10;;;1.10;;
6378;SDS011;3222;48.858;10.128;2022-11-18T04:20:44;1.10;;;1.00;;
6378;SDS011;3222;48.858;10.128;2022-11-18T04:23:10;1.20;;;1.20;;
6378;SDS011;3222;48.858;10.128;2022-11-18T04:25:36;1.17;;;1.17;;
6378;SDS011;3222;48.858;10.128;2022-11-18T04:28:02;1.10;;;1.10;;
6378;SDS011;3222;48.858;10.128;2022-11-18T04:30:28;3.37;;;1.30;;
6378;SDS011;3222;48.858;10.128;2022-11-18T04:32:54;1.30;;;1.30;;
6378;SDS011;3222;48.858;10.128;2022-11-18T04:35:20;1.20;;;1.20;;
6378;SDS011;3222;48.858;10.128;2022-11-18T04:37:45;1.30;;;1.30;;
6378;SDS011;3222;48.858;10.128;2022-11-18T04:40:11;1.33;;;1.23;;
6378;SDS011;3222;48.858;10.128;2022-11-18T04:42:37;1.10;;;1.10;;
6378;SDS011;3222;48.858;10.128;2022-11-18T04:45:03;1.40;;;1.30;;
6378;SDS011;3222;48.858;10.128;2022-11-18T04:47:29;1.20;;;1.20;;
6378;SDS011;3222;48.858;10.128;2022-11-18T04:49:55;1.10;;;1.10;;
6378;SDS011;3222;48.858;10.128;2022-11-18T04:52:21;1.37;;;1.20;;
6378;SDS011;3222;48.858;10.128;2022-11-18T04:54:46;1.33;;;1.20;;
6378;SDS011;3222;48.858;10.128;2022-11-18T04:57:12;2.20;;;1.00;;
6378;SDS011;3222;48.858;10.128;2022-11-18T04:59:38;0.90;;;0.90;;
6378;SDS011;3222;48.858;10.128;2022-11-18T05:02:04;1.00;;;1.00;;
6378;SDS011;3222;48.858;10.128;2022-11-18T05:04:31;0.90;;;0.90;;
6378;SDS011;3222;48.858;10.128;2022-11-18T05:06:58;1.00;;;1.00;;
6378;SDS011;3222;48.858;10.128;2022-11-18T05:09:26;1.00;;;1.00;;
6378;SDS011;3222;48.858;10.128;2022-11-18T05:11:52;0.90;;;0.90;;
6378;SDS011;3222;48.858;10.128;2022-11-18T05:14:36;1.10;;;1.00;;
6378;SDS011;3222;48.858;10.128;2022-11-18T05:17:03;0.90;;;0.90;;
6378;SDS011;3222;48.858;10.128;2022-11-18T05:19:30;1.60;;;0.80;;
6378;SDS011;3222;48.858;10.128;2022-11-18T05:21:56;0.80;;;0.80;;
6378;SDS011;3222;48.858;10.128;2022-11-18T05:24:22;1.00;;;0.90;;
6378;SDS011;3222;48.858;10.128;2022-11-18T05:26:48;3.10;;;1.10;;
6378;SDS011;3222;48.858;10.128;2022-11-18T05:29:16;1.10;;;1.00;;
6378;SDS011;3222;48.858;10.128;2022-11-18T05:31:43;1.50;;;1.40;;
6378;SDS011;3222;48.858;10.128;2022-11-18T05:34:09;1.30;;;1.20;;
6378;SDS011;3222;48.858;10.128;2022-11-18T05:36:35;1.07;;;1.07;;
6378;SDS011;3222;48.858;10.128;2022-11-18T05:39:01;1.37;;;1.20;;
6378;SDS011;3222;48.858;10.128;2022-11-18T05:41:27;2.10;;;1.50;;
6378;SDS011;3222;48.858;10.128;2022-11-18T05:44:11;3.53;;;2.73;;
6378;SDS011;3222;48.858;10.128;2022-11-18T05:46:37;4.30;;;2.83;;
6378;SDS011;3222;48.858;10.128;2022-11-18T05:49:03;2.70;;;2.33;;
6378;SDS011;3222;48.858;10.128;2022-11-18T05:51:28;1.50;;;1.40;;
6378;SDS011;3222;48.858;10.128;2022-11-18T05:53:54;1.20;;;1.20;;
6378;SDS011;3222;48.858;10.128;2022-11-18T05:56:34;1.03;;;1.00;;
6378;SDS011;3222;48.858;10.128;2022-11-18T05:59:02;0.97;;;0.93;;
6378;SDS011;3222;48.858;10.128;2022-11-18T06:01:35;1.20;;;1.20;;
6378;SDS011;3222;48.858;10.128;2022-11-18T06:04:25;1.00;;;1.00;;
6378;SDS011;3222;48.858;10.128;2022-11-18T06:07:04;2.93;;;1.37;;
6378;SDS011;3222;48.858;10.128;2022-11-18T06:09:39;1.83;;;1.70;;
6378;SDS011;3222;48.858;10.128;2022-11-18T06:12:09;1.50;;;1.40;;
6378;SDS011;3222;48.858;10.128;2022-11-18T06:14:41;0.90;;;0.90;;
6378;SDS011;3222;48.858;10.128;2022-11-18T06:17:23;0.97;;;0.97;;
6378;SDS011;3222;48.858;10.128;2022-11-18T06:19:55;1.63;;;1.53;;
6378;SDS011;3222;48.858;10.128;2022-11-18T06:22:22;1.40;;;1.20;;
6378;SDS011;3222;48.858;10.128;2022-11-18T06:24:48;1.20;;;1.20;;
6378;SDS011;3222;48.858;10.128;2022-11-18T06:27:14;1.27;;;1.10;;
6378;SDS011;3222;48.858;10.128;2022-11-18T06:29:40;1.13;;;1.13;;
6378;SDS011;3222;48.858;10.128;2022-11-18T06:32:06;1.00;;;1.00;;
6378;SDS011;3222;48.858;10.128;2022-11-18T06:34:31;1.60;;;1.10;;
6378;SDS011;3222;48.858;10.128;2022-11-18T06:36:57;1.30;;;1.30;;
6378;SDS011;3222;48.858;10.128;2022-11-18T06:39:23;2.00;;;1.40;;
6378;SDS011;3222;48.858;10.128;2022-11-18T06:41:51;1.20;;;1.20;;
6378;SDS011;3222;48.858;10.128;2022-11-18T06:44:18;1.17;;;1.10;;
6378;SDS011;3222;48.858;10.128;2022-11-18T06:46:43;1.00;;;1.00;;
6378;SDS011;3222;48.858;10.128;2022-11-18T06:49:22;1.00;;;1.00;;
6378;SDS011;3222;48.858;10.128;2022-11-18T06:51:49;0.90;;;0.90;;
6378;SDS011;3222;48.858;10.128;2022-11-18T06:54:15;1.00;;;1.00;;
6378;SDS011;3222;48.858;10.128;2022-11-18T06:56:40;1.13;;;1.10;;
6378;SDS011;3222;48.858;10.128;2022-11-18T06:59:06;0.90;;;0.90;;
6378;SDS011;3222;48.858;10.128;2022-11-18T07:01:35;1.80;;;1.20;;
6378;SDS011;3222;48.858;10.128;2022-11-18T07:04:03;1.50;;;1.10;;
6378;SDS011;3222;48.858;10.128;2022-11-18T07:06:30;1.63;;;0.97;;
6378;SDS011;3222;48.858;10.128;2022-11-18T07:09:01;0.80;;;0.80;;
6378;SDS011;3222;48.858;10.128;2022-11-18T07:11:30;0.90;;;0.90;;
6378;SDS011;3222;48.858;10.128;2022-11-18T07:13:55;1.30;;;1.10;;
6378;SDS011;3222;48.858;10.128;2022-11-18T07:16:22;1.43;;;1.33;;
6378;SDS011;3222;48.858;10.128;2022-11-18T07:18:49;1.70;;;1.57;;
6378;SDS011;3222;48.858;10.128;2022-11-18T07:21:20;1.63;;;1.50;;
6378;SDS011;3222;48.858;10.128;2022-11-18T07:23:47;1.60;;;1.50;;
6378;SDS011;3222;48.858;10.128;2022-11-18T07:26:14;2.00;;;1.80;;
6378;SDS011;3222;48.858;10.128;2022-11-18T07:28:40;3.23;;;1.90;;
6378;SDS011;3222;48.858;10.128;2022-11-18T07:31:12;2.17;;;1.97;;
6378;SDS011;3222;48.858;10.128;2022-11-18T07:33:40;1.73;;;1.60;;
6378;SDS011;3222;48.858;10.128;2022-11-18T07:36:10;1.83;;;1.60;;
6378;SDS011;3222;48.858;10.128;2022-11-18T07:38:40;2.40;;;1.90;;
6378;SDS011;3222;48.858;10.128;2022-11-18T07:43:42;1.77;;;1.43;;
6378;SDS011;3222;48.858;10.128;2022-11-18T07:48:52;1.60;;;1.50;;
6378;SDS011;3222;48.858;10.128;2022-11-18T07:51:19;1.10;;;1.10;;
6378;SDS011;3222;48.858;10.128;2022-11-18T07:53:47;1.90;;;1.63;;
6378;SDS011;3222;48.858;10.128;2022-11-18T07:56:13;2.00;;;1.80;;
6378;SDS011;3222;48.858;10.128;2022-11-18T07:58:40;1.73;;;1.63;;
6378;SDS011;3222;48.858;10.128;2022-11-18T08:01:10;2.27;;;2.10;;
6378;SDS011;3222;48.858;10.128;2022-11-18T08:03:36;2.70;;;2.07;;
6378;SDS011;3222;48.858;10.128;2022-11-18T08:06:02;4.00;;;2.23;;
6378;SDS011;3222;48.858;10.128;2022-11-18T08:08:29;2.63;;;1.90;;
6378;SDS011;3222;48.858;10.128;2022-11-18T08:10:58;2.27;;;2.00;;
6378;SDS011;3222;48.858;10.128;2022-11-18T08:13:26;1.80;;;1.70;;
6378;SDS011;3222;48.858;10.128;2022-11-18T08:15:53;2.07;;;1.90;;
6378;SDS011;3222;48.858;10.128;2022-11-18T08:18:20;2.50;;;2.30;;
6378;SDS011;3222;48.858;10.128;2022-11-18T08:20:46;2.07;;;1.83;;
6378;SDS011;3222;48.858;10.128;2022-11-18T08:23:13;2.53;;;1.70;;
6378;SDS011;3222;48.858;10.128;2022-11-18T08:25:40;2.07;;;1.77;;
6378;SDS011;3222;48.858;10.128;2022-11-18T08:28:07;2.00;;;1.40;;
6378;SDS011;3222;48.858;10.128;2022-11-18T08:30:33;1.40;;;1.30;;
6378;SDS011;3222;48.858;10.128;2022-11-18T08:33:00;1.20;;;1.20;;
6378;SDS011;3222;48.858;10.128;2022-11-18T08:35:26;1.20;;;1.20;;
6378;SDS011;3222;48.858;10.128;2022-11-18T08:37:56;1.20;;;1.20;;
6378;SDS011;3222;48.858;10.128;2022-11-18T08:40:23;1.13;;;1.13;;
6378;SDS011;3222;48.858;10.128;2022-11-18T08:42:49;2.10;;;0.97;;
6378;SDS011;3222;48.858;10.128;2022-11-18T08:45:14;1.20;;;1.20;;
6378;SDS011;3222;48.858;10.128;2022-11-18T08:47:41;1.70;;;1.20;;
6378;SDS011;3222;48.858;10.128;2022-11-18T08:50:07;1.40;;;1.30;;
6378;SDS011;3222;48.858;10.128;2022-11-18T08:52:34;1.57;;;1.10;;
6378;SDS011;3222;48.858;10.128;2022-11-18T08:55:00;1.10;;;1.00;;
6378;SDS011;3222;48.858;10.128;2022-11-18T08:57:26;1.90;;;1.70;;
6378;SDS011;3222;48.858;10.128;2022-11-18T08:59:52;2.20;;;2.00;;
6378;SDS011;3222;48.858;10.128;2022-11-18T09:02:19;1.97;;;1.50;;
6378;SDS011;3222;48.858;10.128;2022-11-18T09:04:46;1.10;;;1.10;;
6378;SDS011;3222;48.858;10.128;2022-11-18T09:07:13;0.90;;;0.90;;
6378;SDS011;3222;48.858;10.128;2022-11-18T09:09:39;1.00;;;1.00;;
6378;SDS011;3222;48.858;10.128;2022-11-18T09:12:04;1.00;;;1.00;;
6378;SDS011;3222;48.858;10.128;2022-11-18T09:14:30;1.07;;;1.07;;
6378;SDS011;3222;48.858;10.128;2022-11-18T09:16:56;1.20;;;1.10;;
6378;SDS011;3222;48.858;10.128;2022-11-18T09:19:22;1.23;;;1.10;;
6378;SDS011;3222;48.858;10.128;2022-11-18T09:21:48;1.43;;;1.33;;
6378;SDS011;3222;48.858;10.128;2022-11-18T09:24:14;1.27;;;1.27;;
6378;SDS011;3222;48.858;10.128;2022-11-18T09:26:40;1.43;;;1.33;;
6378;SDS011;3222;48.858;10.128;2022-11-18T09:29:05;1.73;;;1.50;;
6378;SDS011;3222;48.858;10.128;2022-11-18T09:31:32;1.20;;;1.13;;
6378;SDS011;3222;48.858;10.128;2022-11-18T09:33:58;1.20;;;1.20;;
6378;SDS011;3222;48.858;10.128;2022-11-18T09:36:25;1.17;;;1.10;;
6378;SDS011;3222;48.858;10.128;2022-11-18T09:38:51;1.10;;;1.10;;
6378;SDS011;3222;48.858;10.128;2022-11-18T09:44:15;1.30;;;1.30;;
6378;SDS011;3222;48.858;10.128;2022-11-18T09:49:49;1.30;;;1.20;;
6378;SDS011;3222;48.858;10.128;2022-11-18T09:52:17;1.20;;;1.20;;
6378;SDS011;3222;48.858;10.128;2022-11-18T09:54:46;1.10;;;1.10;;
6378;SDS011;3222;48.858;10.128;2022-11-18T09:57:16;1.83;;;1.13;;
6378;SDS011;3222;48.858;10.128;2022-11-18T09:59:44;1.17;;;1.10;;
6378;SDS011;3222;48.858;10.128;2022-11-18T10:04:58;1.40;;;1.30;;
6378;SDS011;3222;48.858;10.128;2022-11-18T10:07:38;1.20;;;1.17;;
6378;SDS011;3222;48.858;10.128;2022-11-18T10:10:12;5.27;;;1.77;;
6378;SDS011;3222;48.858;10.128;2022-11-18T10:12:48;1.47;;;1.30;;
6378;SDS011;3222;48.858;10.128;2022-11-18T10:15:32;1.70;;;1.60;;
6378;SDS011;3222;48.858;10.128;2022-11-18T10:25:45;1.00;;;1.00;;
6378;SDS011;3222;48.858;10.128;2022-11-18T10:28:15;1.23;;;1.23;;
6378;SDS011;3222;48.858;10.128;2022-11-18T10:31:04;1.00;;;1.00;;
6378;SDS011;3222;48.858;10.128;2022-11-18T10:33:31;1.30;;;1.20;;
6378;SDS011;3222;48.858;10.128;2022-11-18T10:36:08;1.50;;;1.40;;
6378;SDS011;3222;48.858;10.128;2022-11-18T10:38:40;1.70;;;1.60;;
6378;SDS011;3222;48.858;10.128;2022-11-18T10:41:08;1.80;;;1.50;;
6378;SDS011;3222;48.858;10.128;2022-11-18T10:43:53;1.40;;;1.30;;
6378;SDS011;3222;48.858;10.128;2022-11-18T10:46:30;1.60;;;1.50;;
6378;SDS011;3222;48.858;10.128;2022-11-18T10:51:36;1.10;;;1.10;;
6378;SDS011;3222;48.858;10.128;2022-11-18T10:54:06;1.10;;;1.10;;
6378;SDS011;3222;48.858;10.128;2022-11-18T10:56:53;1.13;;;1.13;;
6378;SDS011;3222;48.858;10.128;2022-11-18T11:02:02;1.30;;;1.27;;
6378;SDS011;3222;48.858;10.128;2022-11-18T11:04:42;1.40;;;1.37;;
6378;SDS011;3222;48.858;10.128;2022-11-18T11:07:28;1.10;;;1.10;;
6378;SDS011;3222;48.858;10.128;2022-11-18T11:10:40;0.90;;;0.90;;
6378;SDS011;3222;48.858;10.128;2022-11-18T11:12:48;1.00;;;1.00;;
6378;SDS011;3222;48.858;10.128;2022-11-18T11:15:27;1.10;;;1.10;;
6378;SDS011;3222;48.858;10.128;2022-11-18T11:20:42;1.47;;;1.40;;
6378;SDS011;3222;48.858;10.128;2022-11-18T11:23:09;2.03;;;1.57;;
6378;SDS011;3222;48.858;10.128;2022-11-18T11:25:39;1.50;;;1.50;;
6378;SDS011;3222;48.858;10.128;2022-11-18T11:28:17;3.00;;;1.93;;
6378;SDS011;3222;48.858;10.128;2022-11-18T11:37:08;3.23;;;2.50;;
6378;SDS011;3222;48.858;10.128;2022-11-18T11:43:03;1.90;;;1.80;;
6378;SDS011;3222;48.858;10.128;2022-11-18T11:45:58;1.63;;;1.53;;
6378;SDS011;3222;48.858;10.128;2022-11-18T11:51:19;1.50;;;1.40;;
6378;SDS011;3222;48.858;10.128;2022-11-18T12:02:18;1.40;;;1.40;;
6378;SDS011;3222;48.858;10.128;2022-11-18T12:07:54;1.47;;;1.37;;
6378;SDS011;3222;48.858;10.128;2022-11-18T12:10:26;1.40;;;1.30;;
6378;SDS011;3222;48.858;10.128;2022-11-18T12:19:01;1.43;;;1.33;;
6378;SDS011;3222;48.858;10.128;2022-11-18T12:42:59;1.37;;;1.33;;
6378;SDS011;3222;48.858;10.128;2022-11-18T12:50:49;1.30;;;1.30;;
6378;SDS011;3222;48.858;10.128;2022-11-18T12:53:27;1.40;;;1.40;;
6378;SDS011;3222;48.858;10.128;2022-11-18T12:55:56;1.50;;;1.50;;
6378;SDS011;3222;48.858;10.128;2022-11-18T12:58:23;1.60;;;1.50;;
6378;SDS011;3222;48.858;10.128;2022-11-18T13:00:50;1.30;;;1.30;;
6378;SDS011;3222;48.858;10.128;2022-11-18T13:03:32;1.40;;;1.40;;
6378;SDS011;3222;48.858;10.128;2022-11-18T13:05:59;1.30;;;1.30;;
6378;SDS011;3222;48.858;10.128;2022-11-18T13:08:27;1.43;;;1.43;;
6378;SDS011;3222;48.858;10.128;2022-11-18T13:14:02;1.67;;;1.60;;
6378;SDS011;3222;48.858;10.128;2022-11-18T13:16:48;1.70;;;1.60;;
6378;SDS011;3222;48.858;10.128;2022-11-18T13:19:32;1.37;;;1.37;;
6378;SDS011;3222;48.858;10.128;2022-11-18T13:22:01;1.60;;;1.50;;
6378;SDS011;3222;48.858;10.128;2022-11-18T13:24:50;1.30;;;1.30;;
6378;SDS011;3222;48.858;10.128;2022-11-18T13:27:25;1.50;;;1.40;;
6378;SDS011;3222;48.858;10.128;2022-11-18T13:30:10;1.70;;;1.60;;
6378;SDS011;3222;48.858;10.128;2022-11-18T13:32:44;1.60;;;1.50;;
6378;SDS011;3222;48.858;10.128;2022-11-18T13:35:16;2.10;;;2.00;;
6378;SDS011;3222;48.858;10.128;2022-11-18T13:37:48;1.60;;;1.60;;
6378;SDS011;3222;48.858;10.128;2022-11-18T13:40:19;1.43;;;1.43;;
6378;SDS011;3222;48.858;10.128;2022-11-18T13:42:48;1.30;;;1.30;;
6378;SDS011;3222;48.858;10.128;2022-11-18T13:45:14;1.53;;;1.47;;
6378;SDS011;3222;48.858;10.128;2022-11-18T13:50:26;1.57;;;1.47;;
6378;SDS011;3222;48.858;10.128;2022-11-18T13:55:44;1.37;;;1.37;;
6378;SDS011;3222;48.858;10.128;2022-11-18T13:58:31;1.80;;;1.70;;
6378;SDS011;3222;48.858;10.128;2022-11-18T14:01:12;1.80;;;1.60;;
6378;SDS011;3222;48.858;10.128;2022-11-18T14:06:32;2.33;;;1.77;;
6378;SDS011;3222;48.858;10.128;2022-11-18T14:09:50;1.80;;;1.70;;
6378;SDS011;3222;48.858;10.128;2022-11-18T14:14:33;3.17;;;2.87;;
6378;SDS011;3222;48.858;10.128;2022-11-18T14:17:04;3.60;;;3.20;;
6378;SDS011;3222;48.858;10.128;2022-11-18T14:19:38;3.30;;;2.73;;
6378;SDS011;3222;48.858;10.128;2022-11-18T14:22:40;2.97;;;2.70;;
6378;SDS011;3222;48.858;10.128;2022-11-18T14:24:59;4.20;;;2.67;;
6378;SDS011;3222;48.858;10.128;2022-11-18T14:35:52;6.90;;;3.90;;
6378;SDS011;3222;48.858;10.128;2022-11-18T14:38:49;3.10;;;2.43;;
6378;SDS011;3222;48.858;10.128;2022-11-18T14:41:16;2.97;;;2.40;;
6378;SDS011;3222;48.858;10.128;2022-11-18T14:44:06;3.90;;;2.53;;
6378;SDS011;3222;48.858;10.128;2022-11-18T14:46:33;3.17;;;2.43;;
6378;SDS011;3222;48.858;10.128;2022-11-18T14:49:02;1.80;;;1.70;;
6378;SDS011;3222;48.858;10.128;2022-11-18T14:51:30;2.97;;;1.77;;
6378;SDS011;3222;48.858;10.128;2022-11-18T14:53:56;1.83;;;1.60;;
6378;SDS011;3222;48.858;10.128;2022-11-18T14:58:55;2.07;;;1.63;;
6378;SDS011;3222;48.858;10.128;2022-11-18T15:01:21;2.87;;;1.70;;
6378;SDS011;3222;48.858;10.128;2022-11-18T15:03:49;2.70;;;1.60;;
6378;SDS011;3222;48.858;10.128;2022-11-18T15:06:16;2.07;;;1.80;;
6378;SDS011;3222;48.858;10.128;2022-11-18T15:08:44;2.57;;;1.73;;
6378;SDS011;3222;48.858;10.128;2022-11-18T15:11:11;1.90;;;1.80;;
6378;SDS011;3222;48.858;10.128;2022-11-18T15:13:37;2.63;;;1.50;;
6378;SDS011;3222;48.858;10.128;2022-11-18T15:16:11;1.60;;;1.50;;
6378;SDS011;3222;48.858;10.128;2022-11-18T15:18:46;1.97;;;1.50;;
6378;SDS011;3222;48.858;10.128;2022-11-18T15:21:13;1.60;;;1.50;;
6378;SDS011;3222;48.858;10.128;2022-11-18T15:23:39;1.87;;;1.50;;
6378;SDS011;3222;48.858;10.128;2022-11-18T15:26:47;3.07;;;1.83;;
6378;SDS011;3222;48.858;10.128;2022-11-18T15:28:59;3.67;;;1.63;;
6378;SDS011;3222;48.858;10.128;2022-11-18T15:31:25;2.50;;;1.83;;
6378;SDS011;3222;48.858;10.128;2022-11-18T15:33:51;2.27;;;1.90;;
6378;SDS011;3222;48.858;10.128;2022-11-18T15:36:18;3.03;;;1.40;;
6378;SDS011;3222;48.858;10.128;2022-11-18T15:38:46;3.10;;;1.80;;
6378;SDS011;3222;48.858;10.128;2022-11-18T15:41:20;1.80;;;1.70;;
6378;SDS011;3222;48.858;10.128;2022-11-18T15:43:47;2.30;;;1.87;;
6378;SDS011;3222;48.858;10.128;2022-11-18T15:46:14;2.17;;;1.70;;
6378;SDS011;3222;48.858;10.128;2022-11-18T15:48:43;1.53;;;1.43;;
6378;SDS011;3222;48.858;10.128;2022-11-18T15:51:09;1.70;;;1.60;;
6378;SDS011;3222;48.858;10.128;2022-11-18T15:53:35;1.80;;;1.47;;
6378;SDS011;3222;48.858;10.128;2022-11-18T15:58:58;1.30;;;1.30;;
6378;SDS011;3222;48.858;10.128;2022-11-18T16:01:29;1.77;;;1.40;;
6378;SDS011;3222;48.858;10.128;2022-11-18T16:03:57;1.87;;;1.77;;
6378;SDS011;3222;48.858;10.128;2022-11-18T16:06:23;3.63;;;2.30;;
6378;SDS011;3222;48.858;10.128;2022-11-18T16:08:49;2.30;;;1.93;;
6378;SDS011;3222;48.858;10.128;2022-11-18T16:11:15;4.30;;;2.73;;
6378;SDS011;3222;48.858;10.128;2022-11-18T16:14:04;5.03;;;2.60;;
6378;SDS011;3222;48.858;10.128;2022-11-18T16:16:34;3.13;;;2.40;;
6378;SDS011;3222;48.858;10.128;2022-11-18T16:19:02;2.87;;;2.40;;
6378;SDS011;3222;48.858;10.128;2022-11-18T16:21:31;4.67;;;2.33;;
6378;SDS011;3222;48.858;10.128;2022-11-18T16:23:59;6.80;;;3.10;;
6378;SDS011;3222;48.858;10.128;2022-11-18T16:26:26;5.03;;;2.90;;
6378;SDS011;3222;48.858;10.128;2022-11-18T16:28:55;6.17;;;3.70;;
6378;SDS011;3222;48.858;10.128;2022-11-18T16:31:21;4.83;;;3.17;;
6378;SDS011;3222;48.858;10.128;2022-11-18T16:36:35;6.00;;;3.20;;
6378;SDS011;3222;48.858;10.128;2022-11-18T16:39:05;2.63;;;2.37;;
6378;SDS011;3222;48.858;10.128;2022-11-18T16:41:41;3.73;;;2.37;;
6378;SDS011;3222;48.858;10.128;2022-11-18T16:44:12;3.03;;;2.03;;
6378;SDS011;3222;48.858;10.128;2022-11-18T16:46:40;3.03;;;2.20;;
6378;SDS011;3222;48.858;10.128;2022-11-18T16:49:12;2.27;;;1.80;;
6378;SDS011;3222;48.858;10.128;2022-11-18T16:51:40;3.50;;;1.67;;
6378;SDS011;3222;48.858;10.128;2022-11-18T16:54:09;4.70;;;1.93;;
6378;SDS011;3222;48.858;10.128;2022-11-18T16:56:44;3.80;;;2.27;;
6378;SDS011;3222;48.858;10.128;2022-11-18T16:59:24;2.40;;;2.20;;
6378;SDS011;3222;48.858;10.128;2022-11-18T17:01:52;2.70;;;1.93;;
6378;SDS011;3222;48.858;10.128;2022-11-18T17:04:19;2.43;;;2.23;;
6378;SDS011;3222;48.858;10.128;2022-11-18T17:06:45;3.07;;;1.93;;
6378;SDS011;3222;48.858;10.128;2022-11-18T17:09:12;1.90;;;1.63;;
6378;SDS011;3222;48.858;10.128;2022-11-18T17:11:41;2.70;;;1.80;;
6378;SDS011;3222;48.858;10.128;2022-11-18T17:14:07;2.30;;;1.70;;
6378;SDS011;3222;48.858;10.128;2022-11-18T17:16:33;1.73;;;1.63;;
6378;SDS011;3222;48.858;10.128;2022-11-18T17:18:59;2.20;;;1.70;;
6378;SDS011;3222;48.858;10.128;2022-11-18T17:21:26;2.53;;;2.10;;
6378;SDS011;3222;48.858;10.128;2022-11-18T17:23:53;1.70;;;1.60;;
6378;SDS011;3222;48.858;10.128;2022-11-18T17:26:20;2.10;;;1.90;;
6378;SDS011;3222;48.858;10.128;2022-11-18T17:28:50;3.63;;;2.00;;